Terminal Aerodrome Forecast
Issued by NWS Jackson, MS

Home | Current Version | Previous Version | Text Only | Print | Product List | Glossary On
Versions: 1 2 3 4 5 6 7 8 9 10 11 12 13 14 15 16 17 18 19 20
929
FTUS44 KJAN 231120
TAFGLH
TAF
KGLH 231120Z 2312/2412 16004KT 1/4SM FG BKN002
     FM231430 17006KT 3SM BR FEW008 SCT250
     FM231600 18011KT P6SM FEW090 SCT250
     FM240600 18012KT 6SM BR BKN250=

USA.gov is the U.S. government's official web portal to all federal, state and local government web resources and services.